Time,TemperatureF,DewpointF,PressureIn,WindDirection,WindDirectionDegrees,WindSpeedMPH,WindSpeedGustMPH,Humidity,HourlyPrecipIn,Conditions,Clouds,dailyrainin,SoftwareType,DateUTC
2013-03-04 00:01:00,35.5,29.0,30.09,ENE,64,0.0,-999.0,77,-99.99,,,0.00,weatherlink.com 1.10,2013-03-04 07:01:00,
2013-03-04 00:16:00,35.0,29.0,30.07,ENE,64,0.0,-999.0,78,-99.99,,,0.00,weatherlink.com 1.10,2013-03-04 07:16:00,
2013-03-04 00:31:00,34.7,29.0,30.09,ENE,64,0.0,-999.0,80,-99.99,,,0.00,weatherlink.com 1.10,2013-03-04 07:31:00,
2013-03-04 00:46:00,34.4,29.0,30.08,ENE,64,0.0,-999.0,82,-99.99,,,0.00,weatherlink.com 1.10,2013-03-04 07:46:00,
2013-03-04 01:01:00,34.4,29.0,30.08,ENE,64,0.0,-999.0,81,-99.99,,,0.00,weatherlink.com 1.10,2013-03-04 08:01:00,
2013-03-04 01:16:00,34.3,29.0,30.07,ENE,64,0.0,-999.0,81,-99.99,,,0.00,weatherlink.com 1.10,2013-03-04 08:16:00,
2013-03-04 01:31:00,34.3,29.0,30.07,ENE,64,0.0,-999.0,81,-99.99,,,0.00,weatherlink.com 1.10,2013-03-04 08:31:00,
2013-03-04 01:46:00,34.6,30.0,30.08,ENE,64,0.0,-999.0,82,-99.99,,,0.00,weatherlink.com 1.10,2013-03-04 08:46:00,
2013-03-04 02:01:00,35.2,31.0,30.08,ENE,64,0.0,-999.0,83,-99.99,,,0.00,weatherlink.com 1.10,2013-03-04 09:01:00,
2013-03-04 02:16:00,34.6,31.0,30.07,ENE,64,0.0,-999.0,85,-99.99,,,0.00,weatherlink.com 1.10,2013-03-04 09:16:00,
2013-03-04 02:31:00,34.0,30.0,30.07,ENE,64,0.0,-999.0,86,-99.99,,,0.00,weatherlink.com 1.10,2013-03-04 09:31:00,
2013-03-04 02:46:00,33.8,30.0,30.06,ENE,64,0.0,-999.0,86,-99.99,,,0.00,weatherlink.com 1.10,2013-03-04 09:46:00,
2013-03-04 03:01:00,33.7,30.0,30.06,ENE,64,0.0,-999.0,87,-99.99,,,0.00,weatherlink.com 1.10,2013-03-04 10:01:00,
2013-03-04 03:16:00,33.5,30.0,30.07,ENE,64,0.0,-999.0,87,-99.99,,,0.00,weatherlink.com 1.10,2013-03-04 10:16:00,
2013-03-04 03:31:00,33.5,30.0,30.07,ENE,64,0.0,-999.0,88,-99.99,,,0.00,weatherlink.com 1.10,2013-03-04 10:31:00,
2013-03-04 03:46:00,33.2,31.0,30.07,ENE,64,0.0,-999.0,90,-99.99,,,0.00,weatherlink.com 1.10,2013-03-04 10:46:00,
2013-03-04 04:01:00,33.1,31.0,30.07,ENE,64,0.0,-999.0,91,-99.99,,,0.00,weatherlink.com 1.10,2013-03-04 11:01:00,
2013-03-04 04:16:00,32.8,31.0,30.05,ENE,64,0.0,-999.0,93,-99.99,,,0.00,weatherlink.com 1.10,2013-03-04 11:16:00,
2013-03-04 04:31:00,32.4,31.0,30.05,ENE,64,0.0,-999.0,94,-99.99,,,0.00,weatherlink.com 1.10,2013-03-04 11:31:00,
2013-03-04 04:46:00,32.2,31.0,30.07,ENE,64,0.0,-999.0,94,-99.99,,,0.00,weatherlink.com 1.10,2013-03-04 11:46:00,
2013-03-04 05:01:00,32.2,31.0,30.07,ENE,64,0.0,-999.0,94,-99.99,,,0.00,weatherlink.com 1.10,2013-03-04 12:01:00,
2013-03-04 05:16:00,32.1,31.0,30.09,ENE,64,0.0,-999.0,95,-99.99,,,0.00,weatherlink.com 1.10,2013-03-04 12:16:00,
2013-03-04 05:31:00,32.1,31.0,30.09,ENE,64,0.0,-999.0,95,-99.99,,,0.00,weatherlink.com 1.10,2013-03-04 12:31:00,
2013-03-04 05:46:00,31.6,30.0,30.09,ENE,64,0.0,-999.0,95,-99.99,,,0.00,weatherlink.com 1.10,2013-03-04 12:46:00,
2013-03-04 06:01:00,31.9,31.0,30.08,ENE,64,0.0,-999.0,96,-99.99,,,0.00,weatherlink.com 1.10,2013-03-04 13:01:00,
2013-03-04 06:16:00,31.8,31.0,30.13,ENE,64,0.0,-999.0,96,-99.99,,,0.00,weatherlink.com 1.10,2013-03-04 13:16:00,
2013-03-04 06:31:00,31.9,31.0,30.13,ENE,64,0.0,-999.0,96,-99.99,,,0.00,weatherlink.com 1.10,2013-03-04 13:31:00,
2013-03-04 06:46:00,32.2,31.0,30.13,ENE,64,0.0,-999.0,96,-99.99,,,0.00,weatherlink.com 1.10,2013-03-04 13:46:00,
2013-03-04 07:01:00,32.2,31.0,30.13,ENE,64,0.0,-999.0,96,-99.99,,,0.00,weatherlink.com 1.10,2013-03-04 14:01:00,
2013-03-04 07:16:00,32.4,31.0,30.15,ENE,64,0.0,-999.0,96,-99.99,,,0.00,weatherlink.com 1.10,2013-03-04 14:16:00,
2013-03-04 07:31:00,32.5,32.0,30.15,ENE,64,0.0,-999.0,97,-99.99,,,0.00,weatherlink.com 1.10,2013-03-04 14:31:00,
2013-03-04 07:46:00,32.8,32.0,30.13,ENE,64,0.0,-999.0,97,-99.99,,,0.00,weatherlink.com 1.10,2013-03-04 14:46:00,
2013-03-04 08:01:00,34.0,33.0,30.13,ENE,64,0.0,-999.0,97,-99.99,,,0.00,weatherlink.com 1.10,2013-03-04 15:01:00,
2013-03-04 08:16:00,35.9,35.0,30.13,ENE,64,0.0,-999.0,95,-99.99,,,0.00,weatherlink.com 1.10,2013-03-04 15:16:00,
2013-03-04 08:31:00,38.0,35.0,30.12,ENE,66,0.0,-999.0,87,-99.99,,,0.03,weatherlink.com 1.10,2013-03-04 15:31:00,
2013-03-04 08:46:00,36.2,33.0,30.10,ENE,66,0.0,-999.0,89,-99.99,,,0.04,weatherlink.com 1.10,2013-03-04 15:46:00,
2013-03-04 09:01:00,34.7,32.0,30.12,ENE,66,0.0,-999.0,91,-99.99,,,0.05,weatherlink.com 1.10,2013-03-04 16:01:00,
2013-03-04 09:16:00,34.9,33.0,30.14,ENE,66,0.0,-999.0,93,-99.99,,,0.05,weatherlink.com 1.10,2013-03-04 16:16:00,
2013-03-04 09:31:00,35.0,33.0,30.14,ENE,66,0.0,-999.0,93,-99.99,,,0.06,weatherlink.com 1.10,2013-03-04 16:31:00,
2013-03-04 09:46:00,35.6,34.0,30.14,ENE,70,3.0,-999.0,94,-99.99,,,0.07,weatherlink.com 1.10,2013-03-04 16:46:00,
2013-03-04 10:01:00,35.6,34.0,30.12,East,79,2.0,-999.0,94,-99.99,,,0.07,weatherlink.com 1.10,2013-03-04 17:01:00,
2013-03-04 10:16:00,36.2,35.0,30.14,East,90,0.0,-999.0,94,-99.99,,,0.07,weatherlink.com 1.10,2013-03-04 17:16:00,
2013-03-04 10:31:00,37.0,35.0,30.14,East,90,2.0,-999.0,91,-99.99,,,0.07,weatherlink.com 1.10,2013-03-04 17:31:00,
2013-03-04 10:46:00,39.6,36.0,30.12,East,90,1.0,-999.0,86,-99.99,,,0.07,weatherlink.com 1.10,2013-03-04 17:46:00,
2013-03-04 11:01:00,40.1,33.0,30.10,East,90,0.0,-999.0,76,-99.99,,,0.07,weatherlink.com 1.10,2013-03-04 18:01:00,
2013-03-04 11:16:00,41.2,34.0,30.10,SW,224,2.0,-999.0,74,-99.99,,,0.07,weatherlink.com 1.10,2013-03-04 18:16:00,
2013-03-04 11:31:00,42.5,33.0,30.11,South,186,0.0,-999.0,69,-99.99,,,0.07,weatherlink.com 1.10,2013-03-04 18:31:00,
2013-03-04 11:46:00,43.9,32.0,30.09,SE,135,3.0,-999.0,63,-99.99,,,0.07,weatherlink.com 1.10,2013-03-04 18:46:00,
2013-03-04 12:01:00,42.9,31.0,30.08,ESE,117,0.0,-999.0,62,-99.99,,,0.07,weatherlink.com 1.10,2013-03-04 19:01:00,
2013-03-04 12:16:00,41.5,33.0,30.11,ENE,67,0.0,-999.0,71,-99.99,,,0.07,weatherlink.com 1.10,2013-03-04 19:16:00,
2013-03-04 12:31:00,41.9,31.0,30.11,ENE,67,1.0,-999.0,66,-99.99,,,0.07,weatherlink.com 1.10,2013-03-04 19:31:00,
2013-03-04 12:46:00,43.1,32.0,30.11,ENE,67,2.0,-999.0,65,-99.99,,,0.07,weatherlink.com 1.10,2013-03-04 19:46:00,
2013-03-04 13:01:00,46.4,32.0,30.11,SSE,155,0.0,-999.0,58,-99.99,,,0.07,weatherlink.com 1.10,2013-03-04 20:01:00,
2013-03-04 13:16:00,47.1,30.0,30.07,SE,128,0.0,-999.0,52,-99.99,,,0.07,weatherlink.com 1.10,2013-03-04 20:16:00,
2013-03-04 13:31:00,45.2,27.0,30.05,East,80,0.0,-999.0,50,-99.99,,,0.07,weatherlink.com 1.10,2013-03-04 20:31:00,
2013-03-04 13:46:00,44.5,27.0,30.07,SE,128,1.0,-999.0,51,-99.99,,,0.07,weatherlink.com 1.10,2013-03-04 20:46:00,
2013-03-04 14:01:00,47.3,28.0,30.09,West,273,1.0,-999.0,48,-99.99,,,0.07,weatherlink.com 1.10,2013-03-04 21:01:00,
2013-03-04 14:16:00,47.9,24.0,30.07,WSW,248,3.0,-999.0,39,-99.99,,,0.07,weatherlink.com 1.10,2013-03-04 21:16:00,
2013-03-04 14:31:00,47.1,15.0,30.06,WSW,251,3.0,-999.0,27,-99.99,,,0.07,weatherlink.com 1.10,2013-03-04 21:31:00,
2013-03-04 14:46:00,49.9,17.0,30.10,SW,231,3.0,-999.0,27,-99.99,,,0.07,weatherlink.com 1.10,2013-03-04 21:46:00,
2013-03-04 15:01:00,49.2,18.0,30.07,SE,139,2.0,-999.0,29,-99.99,,,0.07,weatherlink.com 1.10,2013-03-04 22:01:00,
2013-03-04 15:16:00,50.2,17.0,30.09,ENE,77,6.0,-999.0,27,-99.99,,,0.07,weatherlink.com 1.10,2013-03-04 22:16:00,
2013-03-04 15:31:00,50.4,17.0,30.10,NE,50,0.0,-999.0,26,-99.99,,,0.07,weatherlink.com 1.10,2013-03-04 22:31:00,
2013-03-04 15:46:00,47.0,18.0,30.10,ENE,71,1.0,-999.0,31,-99.99,,,0.07,weatherlink.com 1.10,2013-03-04 22:46:00,
2013-03-04 16:01:00,46.7,14.0,30.12,ENE,74,0.0,-999.0,27,-99.99,,,0.07,weatherlink.com 1.10,2013-03-04 23:01:00,
2013-03-04 16:16:00,45.5,13.0,30.14,SW,217,1.0,-999.0,27,-99.99,,,0.07,weatherlink.com 1.10,2013-03-04 23:16:00,
2013-03-04 16:31:00,45.5,12.0,30.17,SSE,158,2.0,-999.0,26,-99.99,,,0.07,weatherlink.com 1.10,2013-03-04 23:31:00,
2013-03-04 16:46:00,44.8,16.0,30.16,SSE,159,1.0,-999.0,31,-99.99,,,0.07,weatherlink.com 1.10,2013-03-04 23:46:00,
2013-03-04 17:01:00,42.2,16.0,30.19,WSW,254,0.0,-999.0,34,-99.99,,,0.07,weatherlink.com 1.10,2013-03-05 00:01:00,
2013-03-04 17:16:00,42.1,16.0,30.21,ESE,107,1.0,-999.0,35,-99.99,,,0.07,weatherlink.com 1.10,2013-03-05 00:16:00,
2013-03-04 17:31:00,41.5,18.0,30.23,ESE,107,0.0,-999.0,39,-99.99,,,0.07,weatherlink.com 1.10,2013-03-05 00:31:00,
2013-03-04 17:46:00,40.5,18.0,30.26,East,97,0.0,-999.0,40,-99.99,,,0.07,weatherlink.com 1.10,2013-03-05 00:46:00,
2013-03-04 18:01:00,39.6,19.0,30.27,East,97,0.0,-999.0,43,-99.99,,,0.07,weatherlink.com 1.10,2013-03-05 01:01:00,
2013-03-04 18:15:00,38.6,19.0,30.27,East,97,0.0,-999.0,46,-99.99,,,0.07,weatherlink.com 1.10,2013-03-05 01:15:00,
2013-03-04 18:30:00,38.6,17.0,30.30,East,101,0.0,-999.0,41,-99.99,,,0.07,weatherlink.com 1.10,2013-03-05 01:30:00,
2013-03-04 18:45:00,38.0,17.0,30.30,SSW,203,2.0,-999.0,43,-99.99,,,0.07,weatherlink.com 1.10,2013-03-05 01:45:00,
2013-03-04 19:00:00,37.8,16.0,30.32,East,88,1.0,-999.0,42,-99.99,,,0.07,weatherlink.com 1.10,2013-03-05 02:00:00,
2013-03-04 19:15:00,36.6,12.0,30.32,WNW,295,0.0,-999.0,37,-99.99,,,0.07,weatherlink.com 1.10,2013-03-05 02:15:00,
2013-03-04 19:30:00,36.9,13.0,30.34,SE,132,0.0,-999.0,37,-99.99,,,0.07,weatherlink.com 1.10,2013-03-05 02:30:00,
2013-03-04 19:45:00,36.5,11.0,30.35,East,93,12.0,-999.0,35,-99.99,,,0.07,weatherlink.com 1.10,2013-03-05 02:45:00,
2013-03-04 20:00:00,35.5,12.0,30.36,NNE,16,1.0,-999.0,38,-99.99,,,0.07,weatherlink.com 1.10,2013-03-05 03:00:00,
2013-03-04 20:15:00,34.7,13.0,30.35,ENE,73,2.0,-999.0,40,-99.99,,,0.07,weatherlink.com 1.10,2013-03-05 03:15:00,
2013-03-04 20:30:00,33.8,12.0,30.38,ENE,66,2.0,-999.0,41,-99.99,,,0.07,weatherlink.com 1.10,2013-03-05 03:30:00,
2013-03-04 20:45:00,32.7,13.0,30.39,ENE,66,1.0,-999.0,44,-99.99,,,0.07,weatherlink.com 1.10,2013-03-05 03:45:00,
2013-03-04 21:00:00,32.8,13.0,30.41,ENE,66,3.0,-999.0,45,-99.99,,,0.07,weatherlink.com 1.10,2013-03-05 04:00:00,
2013-03-04 21:15:00,32.8,12.0,30.42,East,84,0.0,-999.0,43,-99.99,,,0.07,weatherlink.com 1.10,2013-03-05 04:15:00,
2013-03-04 21:30:00,31.6,12.0,30.42,NNE,15,0.0,-999.0,45,-99.99,,,0.07,weatherlink.com 1.10,2013-03-05 04:30:00,
2013-03-04 21:45:00,30.7,13.0,30.42,NNE,19,3.0,-999.0,48,-99.99,,,0.07,weatherlink.com 1.10,2013-03-05 04:45:00,
2013-03-04 22:00:00,31.0,13.0,30.44,ENE,77,0.0,-999.0,48,-99.99,,,0.07,weatherlink.com 1.10,2013-03-05 05:00:00,
2013-03-04 22:15:00,31.8,14.0,30.40,NE,42,2.0,-999.0,48,-99.99,,,0.07,weatherlink.com 1.10,2013-03-05 05:15:00,
2013-03-04 22:30:00,31.6,14.0,30.39,ENE,62,2.0,-999.0,48,-99.99,,,0.07,weatherlink.com 1.10,2013-03-05 05:30:00,
2013-03-04 22:45:00,31.2,13.0,30.40,East,101,1.0,-999.0,47,-99.99,,,0.07,weatherlink.com 1.10,2013-03-05 05:45:00,
2013-03-04 23:00:00,30.9,12.0,30.42,East,86,0.0,-999.0,46,-99.99,,,0.07,weatherlink.com 1.10,2013-03-05 06:00:00,
2013-03-04 23:15:00,30.1,11.0,30.39,East,86,0.0,-999.0,45,-99.99,,,0.07,weatherlink.com 1.10,2013-03-05 06:15:00,
2013-03-04 23:30:00,28.8,12.0,30.41,East,86,0.0,-999.0,49,-99.99,,,0.07,weatherlink.com 1.10,2013-03-05 06:30:00,
2013-03-04 23:45:00,27.9,10.0,30.41,East,86,0.0,-999.0,48,-99.99,,,0.07,weatherlink.com 1.10,2013-03-05 06:45:00,